createdAt,value
2023-01-29T00:01:04.858Z,41.60
2023-01-29T00:03:31.261Z,41.51
2023-01-29T00:05:57.661Z,41.35
2023-01-29T00:08:24.030Z,41.26
2023-01-29T00:10:50.506Z,41.21
2023-01-29T00:13:16.946Z,41.20
2023-01-29T00:15:43.459Z,40.91
2023-01-29T00:18:10.135Z,40.93
2023-01-29T00:20:36.485Z,40.85
2023-01-29T00:23:02.862Z,40.74
2023-01-29T00:25:29.325Z,40.68
2023-01-29T00:27:55.758Z,40.81
2023-01-29T00:30:22.760Z,40.54
2023-01-29T00:32:49.201Z,40.62
2023-01-29T00:35:15.633Z,40.67
2023-01-29T00:37:42.090Z,40.56
2023-01-29T00:40:09.414Z,40.65
2023-01-29T00:42:54.581Z,40.49
2023-01-29T00:45:21.088Z,40.45
2023-01-29T00:47:47.486Z,40.50
2023-01-29T00:50:14.269Z,40.54
2023-01-29T00:52:41.262Z,40.47
2023-01-29T00:55:08.146Z,40.39
2023-01-29T00:57:35.570Z,40.49
2023-01-29T01:00:02.644Z,40.50
2023-01-29T01:02:47.831Z,40.48
2023-01-29T01:05:18.271Z,40.42
2023-01-29T01:07:48.866Z,40.40
2023-01-29T01:10:23.029Z,40.38
2023-01-29T01:13:01.384Z,40.17
2023-01-29T01:15:29.721Z,40.33
2023-01-29T01:17:56.961Z,40.37
2023-01-29T01:20:24.507Z,40.27
2023-01-29T01:22:50.878Z,40.18
2023-01-29T01:25:18.795Z,40.36
2023-01-29T01:27:45.311Z,40.29
2023-01-29T01:30:12.737Z,40.33
2023-01-29T01:32:39.415Z,40.20
2023-01-29T01:35:06.134Z,40.27
2023-01-29T01:37:32.978Z,40.20
2023-01-29T01:39:59.451Z,39.97
2023-01-29T01:42:30.504Z,39.90
2023-01-29T01:44:59.248Z,40.12
2023-01-29T01:47:31.057Z,40.02
2023-01-29T01:50:02.645Z,40.05
2023-01-29T01:52:30.906Z,39.99
2023-01-29T01:54:57.635Z,39.82
2023-01-29T01:57:25.397Z,39.84
2023-01-29T01:59:55.252Z,39.93
2023-01-29T02:02:40.464Z,39.84
2023-01-29T02:05:25.956Z,39.81
2023-01-29T02:08:11.114Z,39.84
2023-01-29T02:10:43.330Z,39.81
2023-01-29T02:13:09.982Z,39.94
2023-01-29T02:15:36.609Z,39.75
2023-01-29T02:18:03.251Z,39.81
2023-01-29T02:20:32.005Z,39.93
2023-01-29T02:23:04.661Z,39.92
2023-01-29T02:25:58.189Z,39.88
2023-01-29T02:28:27.127Z,39.77
2023-01-29T02:30:53.620Z,39.90
2023-01-29T02:33:23.223Z,40.12
2023-01-29T02:36:01.823Z,40.47
2023-01-29T02:38:43.552Z,40.27
2023-01-29T02:41:15.127Z,40.05
2023-01-29T02:43:47.494Z,40.06
2023-01-29T02:46:26.237Z,39.99
2023-01-29T02:48:59.169Z,39.79
2023-01-29T02:51:44.538Z,39.76
2023-01-29T02:57:09.958Z,39.73
2023-01-29T02:59:48.392Z,39.68
2023-01-29T03:02:17.848Z,39.47
2023-01-29T03:04:48.764Z,39.66
2023-01-29T03:07:41.065Z,39.31
2023-01-29T03:10:12.566Z,39.53
2023-01-29T03:12:41.095Z,39.34
2023-01-29T03:15:14.150Z,39.67
2023-01-29T03:17:44.150Z,39.55
2023-01-29T03:20:15.017Z,39.77
2023-01-29T03:22:44.074Z,39.62
2023-01-29T03:25:30.423Z,39.78
2023-01-29T03:28:17.766Z,39.65
2023-01-29T03:31:06.000Z,39.64
2023-01-29T03:33:35.709Z,39.55
2023-01-29T03:36:06.645Z,39.64
2023-01-29T03:38:33.219Z,39.51
2023-01-29T03:41:04.617Z,39.55
2023-01-29T03:43:36.981Z,39.43
2023-01-29T03:46:03.444Z,39.49
2023-01-29T03:48:38.673Z,39.37
2023-01-29T03:51:14.479Z,39.49
2023-01-29T03:53:40.838Z,39.28
2023-01-29T03:56:09.200Z,39.50
2023-01-29T03:58:36.170Z,39.43
2023-01-29T04:01:04.812Z,39.55
2023-01-29T04:03:37.553Z,39.18
2023-01-29T04:06:10.590Z,39.40
2023-01-29T04:08:41.100Z,39.36
2023-01-29T04:11:11.954Z,39.40
2023-01-29T04:13:38.783Z,39.36
2023-01-29T04:16:07.419Z,39.35
2023-01-29T04:18:33.829Z,39.36
2023-01-29T04:21:01.262Z,39.44
2023-01-29T04:23:28.093Z,39.62
2023-01-29T04:26:09.862Z,39.56
2023-01-29T04:29:02.563Z,39.53
2023-01-29T04:31:32.750Z,39.53
2023-01-29T04:34:06.296Z,39.62
2023-01-29T04:36:38.901Z,39.50
2023-01-29T04:39:05.466Z,39.57
2023-01-29T04:41:34.673Z,39.58
2023-01-29T04:44:19.825Z,39.64
2023-01-29T04:46:52.267Z,39.67
2023-01-29T04:49:25.212Z,39.59
2023-01-29T04:51:57.257Z,39.60
2023-01-29T04:54:34.590Z,39.74
2023-01-29T04:57:04.002Z,39.70
2023-01-29T04:59:32.973Z,39.72
2023-01-29T05:02:00.575Z,39.66
2023-01-29T05:04:27.983Z,39.72
2023-01-29T05:06:55.651Z,39.82
2023-01-29T05:09:22.640Z,39.69
2023-01-29T05:11:50.025Z,40.08
2023-01-29T05:14:18.530Z,40.22
2023-01-29T05:16:51.611Z,40.11
2023-01-29T05:19:18.158Z,39.98
2023-01-29T05:21:46.757Z,40.08
2023-01-29T05:24:18.303Z,39.82
2023-01-29T05:27:04.634Z,39.79
2023-01-29T05:29:31.183Z,39.99
2023-01-29T05:31:57.920Z,39.91
2023-01-29T05:34:24.638Z,39.88
2023-01-29T05:36:50.994Z,39.86
2023-01-29T05:39:17.443Z,40.01
2023-01-29T05:41:44.703Z,39.79
2023-01-29T05:44:11.153Z,39.90
2023-01-29T05:46:38.213Z,39.88
2023-01-29T05:49:04.790Z,39.97
2023-01-29T05:51:31.453Z,39.80
2023-01-29T05:53:57.823Z,39.99
2023-01-29T05:56:25.384Z,39.89
2023-01-29T05:58:51.851Z,40.07
2023-01-29T06:01:19.812Z,39.79
2023-01-29T06:03:46.673Z,39.80
2023-01-29T06:06:13.196Z,39.72
2023-01-29T06:08:39.712Z,39.75
2023-01-29T06:11:10.352Z,39.81
2023-01-29T06:13:36.745Z,39.86
2023-01-29T06:16:10.131Z,39.98
2023-01-29T06:18:36.984Z,40.17
2023-01-29T06:21:04.274Z,40.12
2023-01-29T06:23:31.308Z,39.97
2023-01-29T06:26:01.181Z,39.99
2023-01-29T06:28:27.640Z,39.93
2023-01-29T06:30:57.363Z,39.93
2023-01-29T06:33:24.935Z,40.09
2023-01-29T06:35:58.478Z,40.26
2023-01-29T06:38:25.523Z,40.23
2023-01-29T06:40:52.327Z,40.17
2023-01-29T06:43:19.158Z,40.31
2023-01-29T06:45:56.282Z,40.25
2023-01-29T06:48:23.444Z,40.14
2023-01-29T06:50:50.197Z,39.99
2023-01-29T06:53:18.087Z,40.01
2023-01-29T06:55:50.756Z,39.98
2023-01-29T06:58:17.219Z,40.05
2023-01-29T07:00:43.771Z,39.14
2023-01-29T07:03:11.157Z,38.88
2023-01-29T07:05:37.702Z,39.72
2023-01-29T07:08:04.567Z,40.04
2023-01-29T07:10:31.207Z,40.46
2023-01-29T07:13:00.585Z,40.54
2023-01-29T07:15:27.465Z,39.99
2023-01-29T07:18:00.722Z,40.48
2023-01-29T07:20:28.302Z,40.75
2023-01-29T07:22:55.000Z,40.91
2023-01-29T07:25:21.745Z,40.96
2023-01-29T07:27:48.806Z,41.04
2023-01-29T07:30:15.819Z,41.16
2023-01-29T07:32:42.373Z,41.09
2023-01-29T07:35:09.479Z,41.16
2023-01-29T07:37:36.003Z,41.19
2023-01-29T07:40:02.721Z,41.11
2023-01-29T07:42:29.190Z,40.99
2023-01-29T07:44:57.446Z,41.06
2023-01-29T07:47:23.868Z,41.19
2023-01-29T07:49:50.223Z,41.03
2023-01-29T07:52:16.704Z,41.12
2023-01-29T07:54:43.060Z,41.09
2023-01-29T07:57:09.446Z,41.29
2023-01-29T07:59:35.831Z,41.23
2023-01-29T08:02:02.215Z,41.03
2023-01-29T08:04:28.697Z,41.09
2023-01-29T08:06:55.140Z,41.06
2023-01-29T08:09:21.539Z,40.98
2023-01-29T08:11:47.960Z,41.06
2023-01-29T08:14:14.455Z,41.12
2023-01-29T08:16:40.851Z,41.12
2023-01-29T08:19:07.312Z,41.11
2023-01-29T08:21:33.808Z,41.18
2023-01-29T08:26:31.463Z,41.14
2023-01-29T08:28:57.898Z,41.04
2023-01-29T08:31:24.385Z,41.23
2023-01-29T08:33:50.857Z,41.19
2023-01-29T08:36:17.210Z,41.31
2023-01-29T08:38:43.604Z,41.21
2023-01-29T08:41:09.990Z,41.04
2023-01-29T08:43:39.817Z,41.26
2023-01-29T08:46:06.733Z,41.06
2023-01-29T08:48:33.806Z,41.15
2023-01-29T08:51:00.816Z,41.21
2023-01-29T08:53:27.247Z,41.08
2023-01-29T08:55:54.017Z,41.06
2023-01-29T08:58:20.627Z,41.13
2023-01-29T09:00:47.016Z,40.94
2023-01-29T09:03:13.604Z,41.12
2023-01-29T09:05:41.007Z,41.13
2023-01-29T09:08:08.109Z,41.19
2023-01-29T09:10:34.627Z,41.07
2023-01-29T09:13:01.021Z,41.09
2023-01-29T09:15:27.564Z,41.13
2023-01-29T09:17:54.035Z,41.17
2023-01-29T09:20:20.625Z,41.17
2023-01-29T09:22:47.187Z,41.10
2023-01-29T09:25:13.649Z,41.19
2023-01-29T09:27:40.082Z,41.09
2023-01-29T09:30:06.993Z,41.44
2023-01-29T09:32:53.865Z,41.16
2023-01-29T09:35:21.628Z,41.17
2023-01-29T09:37:48.534Z,41.15
2023-01-29T09:40:28.308Z,41.22
2023-01-29T09:43:03.969Z,41.22
2023-01-29T09:45:31.271Z,41.17
2023-01-29T09:48:02.292Z,41.20
2023-01-29T09:50:40.546Z,41.14
2023-01-29T09:53:25.733Z,41.16
2023-01-29T09:56:12.465Z,41.16
2023-01-29T09:58:40.194Z,41.10
2023-01-29T10:01:12.787Z,41.24
2023-01-29T10:03:48.456Z,41.13
2023-01-29T10:06:23.321Z,41.15
2023-01-29T10:09:01.855Z,41.20
2023-01-29T10:11:37.481Z,41.21
2023-01-29T10:14:19.932Z,41.22
2023-01-29T10:16:52.410Z,41.21
2023-01-29T10:19:37.066Z,41.23
2023-01-29T10:22:06.493Z,41.28
2023-01-29T10:24:35.828Z,41.24
2023-01-29T10:27:03.204Z,41.17
2023-01-29T10:29:30.292Z,41.15
2023-01-29T10:32:04.606Z,41.27
2023-01-29T10:34:31.026Z,41.32
2023-01-29T10:36:57.408Z,41.21
2023-01-29T10:39:25.382Z,41.20
2023-01-29T10:42:03.849Z,41.28
2023-01-29T10:44:42.601Z,41.21
2023-01-29T10:47:29.304Z,41.31
2023-01-29T10:50:04.339Z,41.28
2023-01-29T10:52:46.009Z,41.28
2023-01-29T10:55:31.341Z,41.32
2023-01-29T10:58:02.760Z,41.34
2023-01-29T11:00:37.063Z,41.31
2023-01-29T11:03:26.454Z,41.35
2023-01-29T11:05:53.695Z,41.25
2023-01-29T11:08:21.855Z,41.28
2023-01-29T11:11:07.089Z,41.40
2023-01-29T11:13:38.062Z,41.34
2023-01-29T11:16:05.160Z,41.38
2023-01-29T11:18:48.823Z,41.36
2023-01-29T11:21:16.090Z,41.35
2023-01-29T11:23:42.527Z,41.40
2023-01-29T11:26:11.967Z,41.30
2023-01-29T11:28:48.839Z,41.34
2023-01-29T11:31:30.058Z,41.35
2023-01-29T11:34:06.790Z,41.29
2023-01-29T11:36:38.310Z,41.42
2023-01-29T11:39:16.033Z,41.12
2023-01-29T11:41:43.830Z,41.42
2023-01-29T11:44:20.623Z,41.42
2023-01-29T11:46:47.730Z,41.34
2023-01-29T11:49:22.742Z,41.34
2023-01-29T11:51:56.067Z,41.46
2023-01-29T11:54:25.087Z,41.36
2023-01-29T11:56:51.864Z,41.34
2023-01-29T11:59:37.392Z,41.40
2023-01-29T12:02:05.761Z,41.25
2023-01-29T12:04:32.353Z,41.38
2023-01-29T12:06:58.723Z,41.35
2023-01-29T12:09:29.623Z,41.30
2023-01-29T12:11:56.050Z,41.33
2023-01-29T12:14:36.043Z,41.33
2023-01-29T12:17:26.389Z,41.36
2023-01-29T12:19:55.873Z,41.31
2023-01-29T12:22:33.479Z,41.30
2023-01-29T12:25:06.227Z,41.25
2023-01-29T12:27:42.367Z,41.41
2023-01-29T12:30:27.014Z,41.33
2023-01-29T12:32:56.645Z,41.41
2023-01-29T12:35:23.107Z,41.35
2023-01-29T12:38:00.838Z,41.33
2023-01-29T12:40:29.378Z,41.37
2023-01-29T12:42:58.933Z,41.31
2023-01-29T12:45:26.940Z,41.37
2023-01-29T12:47:59.275Z,41.38
2023-01-29T12:50:32.424Z,41.48
2023-01-29T12:53:01.673Z,41.44
2023-01-29T12:55:30.516Z,41.40
2023-01-29T12:57:58.071Z,41.49
2023-01-29T13:00:26.719Z,41.40
2023-01-29T13:03:18.073Z,41.33
2023-01-29T13:05:52.287Z,41.45
2023-01-29T13:08:31.192Z,41.41
2023-01-29T13:11:00.898Z,41.46
2023-01-29T13:13:33.222Z,41.47
2023-01-29T13:16:01.157Z,41.39
2023-01-29T13:18:46.469Z,41.47
2023-01-29T13:21:24.377Z,41.46
2023-01-29T13:24:00.154Z,41.40
2023-01-29T13:26:26.834Z,41.50
2023-01-29T13:28:53.751Z,41.53
2023-01-29T13:31:20.255Z,41.46
2023-01-29T13:33:59.361Z,41.47
2023-01-29T13:36:29.227Z,41.48
2023-01-29T13:38:58.711Z,41.43
2023-01-29T13:41:32.023Z,41.48
2023-01-29T13:43:58.481Z,41.48
2023-01-29T13:46:25.120Z,41.38
2023-01-29T13:48:54.497Z,41.43
2023-01-29T13:51:23.141Z,41.46
2023-01-29T13:53:52.739Z,41.57
2023-01-29T13:56:42.675Z,41.54
2023-01-29T13:59:21.247Z,41.51
2023-01-29T14:01:47.713Z,41.48
2023-01-29T14:04:24.094Z,41.48
2023-01-29T14:06:51.708Z,41.48
2023-01-29T14:09:33.082Z,41.49
2023-01-29T14:11:59.947Z,41.50
2023-01-29T14:14:45.138Z,41.35
2023-01-29T14:17:12.013Z,41.41
2023-01-29T14:19:38.530Z,41.39
2023-01-29T14:22:05.489Z,41.56
2023-01-29T14:24:31.924Z,41.51
2023-01-29T14:26:58.358Z,41.39
2023-01-29T14:29:40.924Z,41.36
2023-01-29T14:32:07.290Z,41.42
2023-01-29T14:34:43.058Z,41.53
2023-01-29T14:37:15.500Z,41.44
2023-01-29T14:39:50.158Z,41.52
2023-01-29T14:42:23.307Z,41.48
2023-01-29T14:44:59.143Z,41.41
2023-01-29T14:47:25.523Z,41.49
2023-01-29T14:49:56.454Z,41.46
2023-01-29T14:52:26.840Z,41.48
2023-01-29T14:54:55.116Z,41.68
2023-01-29T14:57:22.689Z,41.60
2023-01-29T14:59:57.812Z,41.67
2023-01-29T15:02:26.931Z,41.60
2023-01-29T15:04:58.719Z,41.68
2023-01-29T15:07:37.193Z,41.66
2023-01-29T15:10:22.335Z,41.73
2023-01-29T15:12:52.755Z,41.78
2023-01-29T15:15:22.301Z,41.73
2023-01-29T15:17:55.273Z,41.69
2023-01-29T15:20:29.979Z,41.59
2023-01-29T15:22:56.744Z,41.67
2023-01-29T15:25:23.807Z,41.64
2023-01-29T15:27:50.556Z,41.65
2023-01-29T15:30:22.553Z,41.57
2023-01-29T15:32:49.417Z,41.63
2023-01-29T15:35:25.731Z,41.60
2023-01-29T15:38:10.842Z,41.63
2023-01-29T15:40:37.267Z,41.59
2023-01-29T15:43:17.708Z,41.64
2023-01-29T15:45:44.220Z,41.62
2023-01-29T15:48:17.323Z,41.59
2023-01-29T15:50:44.324Z,41.68
2023-01-29T15:53:15.889Z,41.62
2023-01-29T15:55:42.583Z,41.61
2023-01-29T15:58:14.276Z,41.65
2023-01-29T16:00:40.898Z,41.52
2023-01-29T16:03:13.974Z,41.67
2023-01-29T16:05:40.824Z,41.70
2023-01-29T16:08:09.307Z,41.71
2023-01-29T16:10:35.809Z,41.74
2023-01-29T16:13:03.086Z,41.67
2023-01-29T16:15:34.184Z,41.60
2023-01-29T16:18:01.415Z,41.72
2023-01-29T16:20:30.597Z,41.61
2023-01-29T16:22:57.312Z,41.69
2023-01-29T16:25:23.824Z,41.68
2023-01-29T16:27:51.550Z,41.75
2023-01-29T16:30:18.359Z,41.74
2023-01-29T16:32:44.914Z,41.66
2023-01-29T16:35:15.826Z,41.69
2023-01-29T16:37:46.550Z,41.71
2023-01-29T16:40:25.141Z,41.78
2023-01-29T16:43:05.558Z,41.72
2023-01-29T16:45:32.061Z,41.71
2023-01-29T16:48:02.573Z,41.83
2023-01-29T16:50:46.383Z,41.80
2023-01-29T16:53:21.849Z,41.72
2023-01-29T16:55:49.845Z,41.84
2023-01-29T16:58:17.540Z,41.67
2023-01-29T17:00:45.650Z,41.75
2023-01-29T17:03:13.102Z,41.71
2023-01-29T17:05:39.491Z,41.78
2023-01-29T17:08:07.090Z,41.69
2023-01-29T17:10:34.106Z,41.75
2023-01-29T17:13:05.667Z,41.77
2023-01-29T17:15:36.704Z,41.55
2023-01-29T17:18:03.315Z,41.76
2023-01-29T17:20:30.476Z,41.82
2023-01-29T17:22:57.061Z,41.73
2023-01-29T17:25:23.794Z,41.81
2023-01-29T17:27:52.149Z,41.85
2023-01-29T17:30:23.718Z,41.78
2023-01-29T17:32:50.083Z,41.86
2023-01-29T17:35:17.226Z,41.88
2023-01-29T17:37:44.384Z,41.75
2023-01-29T17:40:18.297Z,41.83
2023-01-29T17:42:45.179Z,41.86
2023-01-29T17:45:11.603Z,41.95
2023-01-29T17:47:38.070Z,41.86
2023-01-29T17:50:12.895Z,41.77
2023-01-29T17:52:39.274Z,41.89
2023-01-29T17:55:06.091Z,41.85
2023-01-29T17:57:32.841Z,41.73
2023-01-29T17:59:59.206Z,41.74
2023-01-29T18:02:29.070Z,41.82
2023-01-29T18:04:56.325Z,41.85
2023-01-29T18:07:22.837Z,41.82
2023-01-29T18:09:49.229Z,41.89
2023-01-29T18:12:15.604Z,41.76
2023-01-29T18:14:42.047Z,41.75
2023-01-29T18:17:08.540Z,41.84
2023-01-29T18:19:34.891Z,41.70
2023-01-29T18:22:01.352Z,41.76
2023-01-29T18:24:31.343Z,41.84
2023-01-29T18:26:57.769Z,41.85
2023-01-29T18:29:29.455Z,41.89
2023-01-29T18:31:56.257Z,41.83
2023-01-29T18:34:22.652Z,41.86
2023-01-29T18:36:49.132Z,41.79
2023-01-29T18:39:16.055Z,41.82
2023-01-29T18:41:42.621Z,41.75
2023-01-29T18:44:10.253Z,41.85
2023-01-29T18:46:36.741Z,41.71
2023-01-29T18:49:03.176Z,41.70
2023-01-29T18:51:29.706Z,41.71
2023-01-29T18:53:56.092Z,41.83
2023-01-29T18:56:22.717Z,41.73
2023-01-29T18:58:52.644Z,41.87
2023-01-29T19:01:21.812Z,41.81
2023-01-29T19:03:48.422Z,41.84
2023-01-29T19:06:14.879Z,41.69
2023-01-29T19:08:42.798Z,41.74
2023-01-29T19:11:09.678Z,41.71
2023-01-29T19:13:36.631Z,41.78
2023-01-29T19:16:05.908Z,41.68
2023-01-29T19:18:32.320Z,41.72
2023-01-29T19:20:58.877Z,41.78
2023-01-29T19:23:25.395Z,41.88
2023-01-29T19:25:51.961Z,41.72
2023-01-29T19:28:18.610Z,42.00
2023-01-29T19:30:45.128Z,41.75
2023-01-29T19:33:11.684Z,41.87
2023-01-29T19:35:38.207Z,41.87
2023-01-29T19:38:04.720Z,41.80
2023-01-29T19:40:31.334Z,41.84
2023-01-29T19:42:58.416Z,41.75
2023-01-29T19:45:38.583Z,41.87
2023-01-29T19:48:14.456Z,41.88
2023-01-29T19:50:40.938Z,41.83
2023-01-29T19:53:07.351Z,41.88
2023-01-29T19:55:33.969Z,41.90
2023-01-29T19:58:00.654Z,41.84
2023-01-29T20:00:27.140Z,41.87
2023-01-29T20:02:53.630Z,42.06
2023-01-29T20:05:20.528Z,42.21
2023-01-29T20:07:47.261Z,42.39
2023-01-29T20:10:17.350Z,42.47
2023-01-29T20:12:47.056Z,42.74
2023-01-29T20:15:14.455Z,42.88
2023-01-29T20:17:40.985Z,42.96
2023-01-29T20:20:08.526Z,43.01
2023-01-29T20:22:35.086Z,43.09
2023-01-29T20:25:01.601Z,42.95
2023-01-29T20:27:28.044Z,43.14
2023-01-29T20:29:54.468Z,43.22
2023-01-29T20:32:20.901Z,43.17
2023-01-29T20:34:51.907Z,43.36
2023-01-29T20:37:20.272Z,43.28
2023-01-29T20:39:47.089Z,43.28
2023-01-29T20:42:13.936Z,43.32
2023-01-29T20:44:40.420Z,43.25
2023-01-29T20:47:06.954Z,43.24
2023-01-29T20:49:33.389Z,43.33
2023-01-29T20:51:59.802Z,43.31
2023-01-29T20:54:26.407Z,43.34
2023-01-29T20:56:53.035Z,43.32
2023-01-29T20:59:19.897Z,43.21
2023-01-29T21:01:46.330Z,43.36
2023-01-29T21:04:12.865Z,43.32
2023-01-29T21:06:39.387Z,43.33
2023-01-29T21:09:06.018Z,43.20
2023-01-29T21:11:33.660Z,43.23
2023-01-29T21:14:01.816Z,43.35
2023-01-29T21:16:28.324Z,43.31
2023-01-29T21:18:55.764Z,43.24
2023-01-29T21:21:22.307Z,43.23
2023-01-29T21:23:49.033Z,43.21
2023-01-29T21:26:15.463Z,43.07
2023-01-29T21:28:41.899Z,43.18
2023-01-29T21:31:10.151Z,43.10
2023-01-29T21:33:37.072Z,43.01
2023-01-29T21:36:04.021Z,43.06
2023-01-29T21:38:30.470Z,42.90
2023-01-29T21:41:01.106Z,43.05
2023-01-29T21:43:27.633Z,42.83
2023-01-29T21:45:58.500Z,42.21
2023-01-29T21:48:25.469Z,42.12
2023-01-29T21:50:52.399Z,42.33
2023-01-29T21:53:19.232Z,42.25
2023-01-29T21:55:46.366Z,42.14
2023-01-29T21:58:14.416Z,41.63
2023-01-29T22:00:41.089Z,41.46
2023-01-29T22:03:07.591Z,41.31
2023-01-29T22:05:34.124Z,41.37
2023-01-29T22:08:00.655Z,41.39
2023-01-29T22:10:27.680Z,41.16
2023-01-29T22:12:54.422Z,41.04
2023-01-29T22:15:23.459Z,40.87
2023-01-29T22:17:50.250Z,40.92
2023-01-29T22:20:16.957Z,40.71
2023-01-29T22:22:43.587Z,40.57
2023-01-29T22:25:10.019Z,40.51
2023-01-29T22:27:36.667Z,40.39
2023-01-29T22:30:03.553Z,40.11
2023-01-29T22:32:31.400Z,40.35
2023-01-29T22:34:57.821Z,40.21
2023-01-29T22:37:24.224Z,40.15
2023-01-29T22:39:50.587Z,40.14
2023-01-29T22:42:18.367Z,40.08
2023-01-29T22:44:44.752Z,39.84
2023-01-29T22:47:11.140Z,39.72
2023-01-29T22:49:37.505Z,39.95
2023-01-29T22:52:10.139Z,39.77
2023-01-29T22:54:40.354Z,39.82
2023-01-29T22:57:07.140Z,39.76
2023-01-29T22:59:33.614Z,40.00
2023-01-29T23:02:00.101Z,40.16
2023-01-29T23:04:26.901Z,40.05
2023-01-29T23:06:53.311Z,40.13
2023-01-29T23:09:19.687Z,40.06
2023-01-29T23:11:50.399Z,39.87
2023-01-29T23:14:17.133Z,40.03
2023-01-29T23:16:43.537Z,39.80
2023-01-29T23:19:10.680Z,39.82
2023-01-29T23:21:37.241Z,39.86
2023-01-29T23:24:03.846Z,39.83
2023-01-29T23:26:48.804Z,39.97
2023-01-29T23:29:15.303Z,39.88
2023-01-29T23:31:41.863Z,39.81
2023-01-29T23:34:08.297Z,39.89
2023-01-29T23:36:34.703Z,39.90
2023-01-29T23:39:01.128Z,40.12
2023-01-29T23:41:27.657Z,39.89
2023-01-29T23:43:54.181Z,39.70
2023-01-29T23:46:20.742Z,39.81
2023-01-29T23:48:47.174Z,39.94
2023-01-29T23:51:13.579Z,40.04
2023-01-29T23:53:40.160Z,39.96
2023-01-29T23:56:06.798Z,40.02
2023-01-29T23:58:33.527Z,40.03
